Time;durP1;ratioP1;P1;durP2;ratioP2;P2;SDS_P1;SDS_P2;PMS_P1;PMS_P2;Temp;Humidity;BMP_temperature;BMP_pressure;BME280_temperature;BME280_humidity;BME280_pressure;Samples;Min_cycle;Max_cycle;Signal;HPM_P1;HPM_P2
2024/01/04 00:01:20;;;;;;;37.22;27.77;;;;;;;1.09;100.00;98762.03;4910673;29;20108;-80
2024/01/04 00:03:45;;;;;;;42.03;28.92;;;;;;;1.00;100.00;98754.84;4909439;29;20024;-80
2024/01/04 00:06:11;;;;;;;38.78;27.85;;;;;;;0.91;100.00;98759.81;4911054;29;20037;-81
2024/01/04 00:08:36;;;;;;;42.53;28.45;;;;;;;0.90;100.00;98746.00;4913280;29;20119;-81
2024/01/04 00:11:04;;;;;;;37.80;27.70;;;;;;;0.83;100.00;98757.72;4912578;29;20104;-81
2024/01/04 00:13:30;;;;;;;41.28;29.95;;;;;;;0.76;100.00;98767.72;4915188;29;20135;-81
2024/01/04 00:15:55;;;;;;;40.45;30.05;;;;;;;0.88;100.00;98792.03;4910379;29;20036;-80
2024/01/04 00:18:21;;;;;;;41.45;29.45;;;;;;;0.92;100.00;98785.69;4914303;29;20059;-81
2024/01/04 00:20:47;;;;;;;42.53;29.33;;;;;;;0.86;100.00;98783.50;4914105;29;20103;-82
2024/01/04 00:23:12;;;;;;;41.45;28.70;;;;;;;0.84;100.00;98780.16;4913483;29;20434;-81
2024/01/04 00:25:38;;;;;;;41.30;29.38;;;;;;;0.85;100.00;98805.22;4913734;29;20056;-81
2024/01/04 00:28:03;;;;;;;41.63;29.73;;;;;;;0.82;100.00;98823.59;4914750;29;20035;-82
2024/01/04 00:30:29;;;;;;;43.65;30.13;;;;;;;0.79;100.00;98844.56;4911945;29;20033;-81
2024/01/04 00:32:54;;;;;;;40.80;29.55;;;;;;;0.78;100.00;98848.09;4914380;29;20099;-83
2024/01/04 00:35:20;;;;;;;39.45;30.52;;;;;;;0.83;100.00;98851.22;4909132;29;20525;-81
2024/01/04 00:37:46;;;;;;;49.20;32.90;;;;;;;0.90;100.00;98870.69;4912932;29;20070;-82
2024/01/04 00:40:11;;;;;;;49.35;33.80;;;;;;;0.91;100.00;98864.56;4908447;29;20069;-82
2024/01/04 00:42:38;;;;;;;47.78;34.15;;;;;;;0.92;100.00;98868.81;4912842;29;20032;-81
2024/01/04 00:45:04;;;;;;;50.83;35.53;;;;;;;1.00;100.00;98871.72;4913054;29;20047;-81
2024/01/04 00:47:29;;;;;;;48.97;36.75;;;;;;;1.06;100.00;98858.34;4910422;29;20052;-81
2024/01/04 00:49:55;;;;;;;49.20;36.60;;;;;;;1.12;100.00;98857.16;4911151;29;20101;-80
2024/01/04 00:52:21;;;;;;;52.08;36.38;;;;;;;1.19;100.00;98866.19;4912972;29;20043;-83
2024/01/04 00:54:46;;;;;;;56.35;37.38;;;;;;;1.21;100.00;98872.94;4909528;29;20419;-83
2024/01/04 00:57:12;;;;;;;56.42;38.00;;;;;;;1.27;100.00;98879.50;4912453;29;20047;-83
2024/01/04 00:59:37;;;;;;;51.05;36.63;;;;;;;1.29;100.00;98874.22;4914078;29;20036;-83
2024/01/04 01:02:03;;;;;;;51.17;36.75;;;;;;;1.34;100.00;98874.75;4913190;29;20046;-83
2024/01/04 01:04:29;;;;;;;51.35;35.40;;;;;;;1.34;100.00;98877.34;4909319;29;20058;-83
2024/01/04 01:06:54;;;;;;;52.10;36.13;;;;;;;1.38;100.00;98871.00;4913894;29;20032;-82
2024/01/04 01:09:20;;;;;;;49.97;36.42;;;;;;;1.40;100.00;98882.13;4908771;29;20053;-82
2024/01/04 01:11:45;;;;;;;46.78;35.15;;;;;;;1.40;100.00;98882.13;4915377;29;20116;-84
2024/01/04 01:14:11;;;;;;;50.40;35.80;;;;;;;1.42;100.00;98875.88;4910701;29;20489;-82
2024/01/04 01:16:36;;;;;;;46.60;35.78;;;;;;;1.44;100.00;98873.19;4915694;29;20401;-82
2024/01/04 01:19:02;;;;;;;46.63;34.47;;;;;;;1.46;100.00;98877.38;4910204;29;20052;-82
2024/01/04 01:21:28;;;;;;;50.00;34.75;;;;;;;1.48;100.00;98874.66;4911988;29;20028;-82
2024/01/04 01:23:53;;;;;;;49.85;34.80;;;;;;;1.41;100.00;98884.66;4909934;29;20103;-81
2024/01/04 01:26:20;;;;;;;45.17;33.95;;;;;;;1.43;100.00;98892.31;4910554;29;20068;-81
2024/01/04 01:28:45;;;;;;;49.40;32.65;;;;;;;1.43;100.00;98887.13;4909373;29;20123;-82
2024/01/04 01:31:11;;;;;;;48.50;34.83;;;;;;;1.47;100.00;98888.59;4913839;29;20036;-82
2024/01/04 01:33:36;;;;;;;43.45;32.75;;;;;;;1.53;100.00;98893.41;4909799;29;20028;-83
2024/01/04 01:36:02;;;;;;;45.15;33.03;;;;;;;1.54;100.00;98898.47;4910479;29;20100;-82
2024/01/04 01:38:28;;;;;;;48.88;32.83;;;;;;;1.49;100.00;98899.72;4908449;29;20055;-80
2024/01/04 01:40:54;;;;;;;42.95;32.35;;;;;;;1.47;100.00;98906.81;4912210;29;20091;-81
2024/01/04 01:43:19;;;;;;;44.38;32.28;;;;;;;1.40;100.00;98902.94;4909849;29;20139;-81
2024/01/04 01:45:46;;;;;;;45.47;33.15;;;;;;;1.36;100.00;98901.44;4915252;29;20032;-83
2024/01/04 01:48:14;;;;;;;42.17;32.10;;;;;;;1.30;100.00;98907.09;4908595;29;20123;-82
2024/01/04 01:50:41;;;;;;;43.47;29.63;;;;;;;1.23;100.00;98917.03;4912819;29;20079;-82
2024/01/04 01:53:07;;;;;;;45.55;32.38;;;;;;;1.24;100.00;98913.47;4909536;29;20104;-82
2024/01/04 01:55:32;;;;;;;43.25;31.30;;;;;;;1.26;100.00;98916.00;4918262;29;20083;-82
2024/01/04 01:57:59;;;;;;;46.22;31.40;;;;;;;1.26;100.00;98926.38;4906182;29;20433;-82
2024/01/04 02:00:25;;;;;;;45.22;31.60;;;;;;;1.23;100.00;98923.06;4912896;29;20036;-82
2024/01/04 02:02:50;;;;;;;44.40;31.98;;;;;;;1.24;100.00;98923.88;4908907;29;20036;-81
2024/01/04 02:05:16;;;;;;;40.40;30.80;;;;;;;1.18;100.00;98930.31;4910423;29;20107;-81
2024/01/04 02:07:45;;;;;;;42.45;30.50;;;;;;;1.17;100.00;98930.44;4907249;29;20043;-81
2024/01/04 02:10:12;;;;;;;42.72;31.45;;;;;;;1.22;100.00;98926.59;4912449;29;20502;-81
2024/01/04 02:12:38;;;;;;;42.85;30.85;;;;;;;1.22;100.00;98924.00;4907721;29;20056;-81
2024/01/04 02:15:04;;;;;;;44.10;32.88;;;;;;;1.15;100.00;98933.13;4911420;29;20044;-81
2024/01/04 02:17:29;;;;;;;42.65;32.38;;;;;;;1.23;100.00;98948.22;4909575;29;20067;-80
2024/01/04 02:19:57;;;;;;;49.58;33.15;;;;;;;1.27;100.00;98959.25;4911289;29;20456;-81
2024/01/04 02:22:22;;;;;;;45.50;31.75;;;;;;;1.29;100.00;98941.78;4906280;29;20032;-80
2024/01/04 02:24:48;;;;;;;45.35;31.58;;;;;;;1.21;100.00;98950.91;4909817;29;20492;-81
2024/01/04 02:27:13;;;;;;;43.35;31.73;;;;;;;1.15;100.00;98947.88;4908097;29;20043;-82
2024/01/04 02:29:39;;;;;;;41.38;30.42;;;;;;;1.10;100.00;98948.19;4910266;29;20135;-82
2024/01/04 02:32:06;;;;;;;41.83;31.05;;;;;;;1.08;100.00;98955.22;4913420;29;20063;-81
2024/01/04 02:34:32;;;;;;;41.22;30.42;;;;;;;1.12;100.00;98946.28;4910977;29;20047;-81
2024/01/04 02:36:57;;;;;;;40.55;31.15;;;;;;;1.13;100.00;98962.72;4907545;29;20044;-82
2024/01/04 02:39:23;;;;;;;44.63;32.03;;;;;;;1.00;100.00;98957.47;4913842;29;20036;-81
2024/01/04 02:41:48;;;;;;;42.40;31.13;;;;;;;0.90;100.00;98956.41;4906620;29;20033;-82
2024/01/04 02:44:15;;;;;;;43.40;30.70;;;;;;;0.82;100.00;98945.69;4909622;29;20039;-82
2024/01/04 02:46:40;;;;;;;42.20;29.90;;;;;;;0.74;100.00;98956.53;4913427;29;20036;-82
2024/01/04 02:49:05;;;;;;;43.83;31.48;;;;;;;0.61;100.00;98960.81;4914722;29;20047;-82
2024/01/04 02:51:31;;;;;;;45.00;30.90;;;;;;;0.48;100.00;98957.31;4909026;29;20071;-83
2024/01/04 02:53:56;;;;;;;41.45;31.00;;;;;;;0.42;100.00;98962.88;4910880;29;20106;-82
2024/01/04 02:56:22;;;;;;;41.28;30.50;;;;;;;0.43;100.00;98961.09;4906622;29;20055;-81
2024/01/04 02:58:47;;;;;;;42.03;32.50;;;;;;;0.49;100.00;98961.56;4911636;29;20036;-81
2024/01/04 03:01:23;;;;;;;46.58;32.28;;;;;;;0.51;100.00;98969.28;4911961;29;20464;-82
2024/01/04 03:03:55;;;;;;;41.97;31.35;;;;;;;0.44;100.00;98962.78;4910301;29;20496;-81
2024/01/04 03:06:27;;;;;;;46.55;32.28;;;;;;;0.49;100.00;98968.53;4910029;29;20035;-81
2024/01/04 03:08:53;;;;;;;45.10;31.60;;;;;;;0.49;100.00;98971.94;4908816;29;20064;-82
2024/01/04 03:11:19;;;;;;;41.63;31.38;;;;;;;0.51;100.00;98962.31;4910671;29;20084;-82
2024/01/04 03:13:46;;;;;;;40.83;30.95;;;;;;;0.52;100.00;98968.34;4910458;29;20051;-82
2024/01/04 03:16:13;;;;;;;41.20;30.98;;;;;;;0.52;100.00;98976.13;4908237;29;20056;-82
2024/01/04 03:18:38;;;;;;;41.35;30.83;;;;;;;0.53;100.00;98970.03;4913988;29;20044;-83
2024/01/04 03:21:08;;;;;;;44.95;32.25;;;;;;;0.53;100.00;98973.44;4908975;29;20050;-81
2024/01/04 03:23:34;;;;;;;41.08;29.85;;;;;;;0.56;100.00;98972.41;4910129;29;20040;-81
2024/01/04 03:26:00;;;;;;;46.42;30.67;;;;;;;0.64;100.00;98977.97;4910143;29;20040;-82
2024/01/04 03:28:25;;;;;;;41.25;29.63;;;;;;;0.61;100.00;98954.78;4910482;29;20039;-81
2024/01/04 03:30:50;;;;;;;36.78;28.45;;;;;;;0.49;100.00;98968.53;4912112;29;20366;-84
2024/01/04 03:33:16;;;;;;;37.53;29.60;;;;;;;0.35;100.00;98965.00;4910685;29;20550;-82
2024/01/04 03:35:42;;;;;;;39.25;28.80;;;;;;;0.26;100.00;98975.94;4909474;29;20438;-83
2024/01/04 03:38:07;;;;;;;40.80;29.33;;;;;;;0.13;100.00;98967.22;4912677;29;20122;-82
2024/01/04 03:40:33;;;;;;;40.22;29.30;;;;;;;0.02;100.00;98972.22;4904092;29;20124;-83
2024/01/04 03:42:58;;;;;;;46.47;30.92;;;;;;;-0.05;100.00;98981.28;4909968;29;20242;-83
2024/01/04 03:45:24;;;;;;;40.50;30.58;;;;;;;-0.13;100.00;98960.19;4909636;29;20119;-83
2024/01/04 03:47:49;;;;;;;40.20;30.98;;;;;;;-0.08;100.00;98971.09;4910052;29;20039;-82
2024/01/04 03:50:15;;;;;;;45.38;32.63;;;;;;;-0.08;100.00;98971.09;4911550;29;20046;-82
2024/01/04 03:52:40;;;;;;;47.75;32.13;;;;;;;0.04;100.00;98964.38;4910352;29;20036;-82
2024/01/04 03:55:06;;;;;;;44.15;32.45;;;;;;;0.10;100.00;98984.75;4906561;29;20450;-82
2024/01/04 03:57:31;;;;;;;43.92;31.52;;;;;;;0.07;100.00;98980.56;4911784;29;20060;-83
2024/01/04 03:59:57;;;;;;;41.92;31.65;;;;;;;0.07;100.00;98990.09;4910309;29;20047;-83
2024/01/04 04:02:22;;;;;;;37.90;29.70;;;;;;;0.03;100.00;98984.28;4909459;29;20036;-83
2024/01/04 04:04:49;;;;;;;41.95;29.50;;;;;;;0.05;100.00;98985.03;4910728;29;20064;-83
2024/01/04 04:07:14;;;;;;;38.95;29.10;;;;;;;0.08;100.00;98971.88;4909807;29;20087;-84
2024/01/04 04:09:40;;;;;;;43.53;31.05;;;;;;;0.07;100.00;98988.34;4906605;29;20039;-82
2024/01/04 04:12:05;;;;;;;39.83;30.40;;;;;;;0.11;100.00;98997.63;4912087;29;20111;-82
2024/01/04 04:14:33;;;;;;;45.47;31.85;;;;;;;0.05;100.00;99003.19;4906740;29;20497;-82
2024/01/04 04:17:00;;;;;;;37.78;29.95;;;;;;;0.03;100.00;99004.19;4909010;29;20107;-81
2024/01/04 04:19:27;;;;;;;36.45;28.05;;;;;;;0.03;100.00;99010.22;4910447;29;20040;-82
2024/01/04 04:21:53;;;;;;;38.85;29.05;;;;;;;0.03;100.00;99010.22;4908110;29;20492;-83
2024/01/04 04:24:18;;;;;;;40.45;29.50;;;;;;;0.03;100.00;99012.81;4909999;29;20071;-82
2024/01/04 04:26:44;;;;;;;40.25;30.35;;;;;;;0.01;100.00;99014.66;4910416;29;20039;-83
2024/01/04 04:29:09;;;;;;;41.35;29.52;;;;;;;-0.13;100.00;99015.47;4907035;29;20055;-81
2024/01/04 04:31:35;;;;;;;42.95;30.75;;;;;;;-0.06;100.00;99005.59;4910794;29;20058;-80
2024/01/04 04:34:00;;;;;;;42.25;31.50;;;;;;;0.05;100.00;99007.53;4908063;29;20032;-79
2024/01/04 04:36:26;;;;;;;44.05;31.25;;;;;;;0.06;100.00;99015.22;4906347;29;20035;-81
2024/01/04 04:38:51;;;;;;;40.22;29.75;;;;;;;0.03;100.00;99024.94;4908813;29;20039;-81
2024/01/04 04:41:17;;;;;;;40.22;29.38;;;;;;;0.04;100.00;99027.44;4908844;29;20054;-82
2024/01/04 04:43:43;;;;;;;41.33;29.55;;;;;;;0.08;100.00;99023.75;4905333;29;20114;-80
2024/01/04 04:46:11;;;;;;;36.03;27.15;;;;;;;0.09;100.00;99027.19;4911269;29;20394;-81
2024/01/04 04:48:37;;;;;;;37.55;28.10;;;;;;;0.05;100.00;99039.50;4910567;29;20044;-81
2024/01/04 04:51:03;;;;;;;36.63;28.63;;;;;;;0.03;100.00;99023.19;4908725;29;20047;-82
2024/01/04 04:53:28;;;;;;;39.33;28.95;;;;;;;0.04;100.00;99017.06;4911323;29;20036;-82
2024/01/04 04:55:54;;;;;;;35.90;28.17;;;;;;;-0.01;100.00;99004.38;4907380;29;20407;-81
2024/01/04 04:58:19;;;;;;;38.47;28.02;;;;;;;0.06;100.00;99010.03;4910426;29;20040;-81
2024/01/04 05:00:46;;;;;;;35.38;28.10;;;;;;;0.09;100.00;99015.03;4911915;29;20055;-82
2024/01/04 05:03:12;;;;;;;37.22;27.15;;;;;;;0.09;100.00;99009.84;4910156;29;20446;-81
2024/01/04 05:05:38;;;;;;;38.38;27.17;;;;;;;-0.08;100.00;99008.25;4915130;29;20083;-82
2024/01/04 05:08:07;;;;;;;39.65;28.13;;;;;;;-0.29;100.00;99008.66;4911802;29;20068;-81
2024/01/04 05:10:33;;;;;;;;;;;;;;;-0.53;100.00;98998.75;4908116;29;20044;-81
2024/01/04 05:12:59;;;;;;;38.72;26.42;;;;;;;-0.43;100.00;98994.75;4913700;29;19915;-82
2024/01/04 05:15:25;;;;;;;40.95;28.00;;;;;;;-0.54;100.00;98989.34;4913632;29;20036;-81
2024/01/04 05:17:51;;;;;;;35.47;27.65;;;;;;;-0.53;100.00;98990.97;4913608;29;20067;-81
2024/01/04 05:20:17;;;;;;;36.65;27.48;;;;;;;-0.65;100.00;99002.06;4912647;29;20062;-81
2024/01/04 05:22:42;;;;;;;40.17;28.92;;;;;;;-0.79;100.00;99006.34;4910236;29;20552;-80
2024/01/04 05:25:11;;;;;;;39.65;28.00;;;;;;;-0.66;100.00;99000.41;4914668;29;20040;-81
2024/01/04 05:27:36;;;;;;;41.03;27.98;;;;;;;-0.65;100.00;98996.06;4909616;29;20123;-82
2024/01/04 05:30:02;;;;;;;36.88;28.85;;;;;;;-0.63;100.00;98994.19;4911889;29;20111;-81
2024/01/04 05:32:27;;;;;;;36.97;27.95;;;;;;;-0.63;100.00;98995.03;4912450;29;20063;-81
2024/01/04 05:34:53;;;;;;;39.97;29.52;;;;;;;-0.65;100.00;98999.47;4909451;29;20032;-81
2024/01/04 05:37:18;;;;;;;40.35;29.52;;;;;;;-0.57;100.00;99012.81;4909788;29;20032;-80
2024/01/04 05:39:45;;;;;;;40.22;27.98;;;;;;;-0.51;100.00;99030.63;4913011;29;20036;-81
2024/01/04 05:42:10;;;;;;;35.67;27.02;;;;;;;-0.46;100.00;99038.97;4910217;29;20110;-82
2024/01/04 05:44:35;;;;;;;41.75;28.55;;;;;;;-0.46;100.00;99030.34;4911755;29;20445;-80
2024/01/04 05:47:01;;;;;;;38.10;27.50;;;;;;;-0.52;100.00;99028.94;4912613;29;20024;-81
2024/01/04 05:49:26;;;;;;;37.50;27.83;;;;;;;-0.58;100.00;99024.09;4914311;29;20036;-82
2024/01/04 05:51:52;;;;;;;37.80;28.08;;;;;;;-0.65;100.00;99040.94;4910394;29;20028;-82
2024/01/04 05:54:17;;;;;;;37.65;28.40;;;;;;;-0.69;100.00;99044.59;4907032;29;20375;-83
2024/01/04 05:56:44;;;;;;;40.47;29.08;;;;;;;-0.62;100.00;99039.91;4907156;29;20071;-80
2024/01/04 05:59:10;;;;;;;36.00;28.63;;;;;;;-0.56;100.00;99040.41;4911605;29;20059;-85
2024/01/04 06:01:38;;;;;;;38.13;28.92;;;;;;;-0.52;100.00;99044.50;4907190;29;20024;-83
2024/01/04 06:04:04;;;;;;;39.38;28.90;;;;;;;-0.58;100.00;99050.00;4905437;29;20080;-81
2024/01/04 06:06:29;;;;;;;37.42;29.45;;;;;;;-0.60;100.00;99051.88;4911127;29;20056;-83
2024/01/04 06:08:54;;;;;;;40.42;30.05;;;;;;;-0.57;100.00;99043.06;4911958;29;20039;-81
2024/01/04 06:11:20;;;;;;;46.28;30.77;;;;;;;-0.52;100.00;99039.31;4908365;29;20044;-81
2024/01/04 06:13:45;;;;;;;38.33;30.15;;;;;;;-0.48;100.00;99043.41;4909670;29;20055;-83
2024/01/04 06:16:11;;;;;;;39.90;31.23;;;;;;;-0.45;100.00;99045.81;4909714;29;20467;-81
2024/01/04 06:18:37;;;;;;;41.00;30.95;;;;;;;-0.42;100.00;99050.00;4911581;29;20032;-81
2024/01/04 06:21:05;;;;;;;42.28;30.92;;;;;;;-0.39;100.00;99054.16;4910194;29;20097;-81
2024/01/04 06:23:31;;;;;;;42.63;30.15;;;;;;;-0.36;100.00;99048.81;4910910;29;20032;-82
2024/01/04 06:25:57;;;;;;;39.47;29.23;;;;;;;-0.33;100.00;99053.81;4907882;29;20048;-83
2024/01/04 06:28:24;;;;;;;43.03;31.10;;;;;;;-0.37;100.00;99041.97;4903201;29;20032;-83
2024/01/04 06:30:51;;;;;;;39.35;29.73;;;;;;;-0.30;100.00;99043.28;4905800;29;20031;-81
2024/01/04 06:33:17;;;;;;;42.22;31.08;;;;;;;-0.26;100.00;99050.81;4906977;29;20064;-83
2024/01/04 06:35:43;;;;;;;36.08;27.88;;;;;;;-0.24;100.00;99042.94;4906336;29;20079;-82
2024/01/04 06:38:09;;;;;;;37.60;28.55;;;;;;;-0.20;100.00;99049.63;4907248;29;20035;-82
2024/01/04 06:40:38;;;;;;;39.28;28.77;;;;;;;-0.30;100.00;99059.69;4903688;29;20085;-83
2024/01/04 06:43:08;;;;;;;42.17;30.15;;;;;;;-0.23;100.00;99058.41;4913408;29;20123;-83
2024/01/04 06:45:37;;;;;;;39.47;29.40;;;;;;;-0.19;100.00;99056.47;4908240;29;20031;-83
2024/01/04 06:48:07;;;;;;;39.83;30.27;;;;;;;-0.16;100.00;99045.91;4914232;29;20063;-84
2024/01/04 06:50:33;;;;;;;41.33;29.55;;;;;;;-0.17;100.00;99039.06;4903802;29;20491;-82
2024/01/04 06:52:58;;;;;;;40.63;29.80;;;;;;;-0.17;100.00;99031.28;4909998;29;20036;-82
2024/01/04 06:55:24;;;;;;;42.72;30.65;;;;;;;-0.25;100.00;99051.66;4904681;29;20032;-83
2024/01/04 06:57:49;;;;;;;40.88;30.17;;;;;;;-0.27;100.00;99053.47;4912028;29;20095;-81
2024/01/04 07:00:15;;;;;;;43.88;30.55;;;;;;;-0.45;100.00;99063.13;4911173;29;20445;-81
2024/01/04 07:02:41;;;;;;;44.38;31.48;;;;;;;-0.43;100.00;99075.09;4907611;29;20306;-82
2024/01/04 07:05:08;;;;;;;43.30;30.48;;;;;;;-0.57;100.00;99081.94;4910053;29;20393;-81
2024/01/04 07:07:36;;;;;;;39.92;29.63;;;;;;;-0.50;100.00;99091.91;4908245;29;20048;-81
2024/01/04 07:10:02;;;;;;;41.35;28.65;;;;;;;-0.50;100.00;99093.66;4910870;29;20096;-81
2024/01/04 07:12:28;;;;;;;42.83;29.70;;;;;;;-0.46;100.00;99095.97;4910668;29;20047;-81
2024/01/04 07:14:53;;;;;;;45.55;30.90;;;;;;;-0.38;100.00;99094.72;4909591;29;20041;-82
2024/01/04 07:17:19;;;;;;;42.45;29.75;;;;;;;-0.33;100.00;99103.09;4912050;29;20044;-81
2024/01/04 07:19:46;;;;;;;40.25;29.92;;;;;;;-0.33;100.00;99096.13;4911636;29;20421;-79
2024/01/04 07:22:12;;;;;;;41.25;30.50;;;;;;;-0.32;100.00;99102.16;4229204;29;10000690;-80
2024/01/04 07:24:38;;;;;;;42.38;30.23;;;;;;;-0.29;100.00;99091.59;4906985;29;20036;-79
2024/01/04 07:27:04;;;;;;;38.28;27.60;;;;;;;-0.25;100.00;99093.97;4906590;29;20086;-77
2024/01/04 07:29:31;;;;;;;43.53;31.92;;;;;;;-0.17;100.00;99088.31;4907794;29;20047;-77
2024/01/04 07:31:56;;;;;;;48.65;31.48;;;;;;;-0.09;100.00;99109.47;4904925;29;20927;-77
2024/01/04 07:34:22;;;;;;;41.65;30.15;;;;;;;-0.04;100.00;99102.28;4903080;29;20094;-78
2024/01/04 07:36:47;;;;;;;40.42;28.67;;;;;;;-0.02;100.00;99090.06;4900848;29;20163;-78
2024/01/04 07:39:13;;;;;;;42.05;29.35;;;;;;;-0.09;100.00;99094.75;4908877;29;20032;-79
2024/01/04 07:41:39;;;;;;;41.17;29.27;;;;;;;-0.05;100.00;99095.41;4902835;29;20035;-78
2024/01/04 07:44:05;;;;;;;44.42;31.52;;;;;;;0.00;100.00;99103.78;4565909;29;10000518;-77
2024/01/04 07:46:31;;;;;;;39.80;28.92;;;;;;;0.01;100.00;99095.06;4907696;29;20025;-76
2024/01/04 07:48:57;;;;;;;42.28;31.35;;;;;;;-0.01;100.00;99107.31;4912427;29;20029;-77
2024/01/04 07:51:22;;;;;;;42.30;30.30;;;;;;;-0.01;100.00;99102.94;4906249;29;20390;-77
2024/01/04 07:53:48;;;;;;;52.33;31.95;;;;;;;0.04;100.00;99094.91;4907501;29;20032;-78
2024/01/04 07:56:13;;;;;;;46.55;30.73;;;;;;;0.10;100.00;99089.34;4909506;29;20495;-75
2024/01/04 07:58:39;;;;;;;41.55;30.02;;;;;;;0.13;100.00;99094.34;4906484;29;20464;-76
2024/01/04 08:01:05;;;;;;;38.75;28.83;;;;;;;0.24;100.00;99097.16;4909434;29;20469;-75
2024/01/04 08:03:31;;;;;;;38.63;29.90;;;;;;;0.27;100.00;99097.00;4907730;29;20033;-79
2024/01/04 08:05:56;;;;;;;41.88;29.50;;;;;;;0.35;100.00;99094.75;4904359;29;20485;-78
2024/01/04 08:08:21;;;;;;;42.97;29.58;;;;;;;0.41;100.00;99084.03;4911312;29;20078;-79
2024/01/04 08:10:47;;;;;;;43.65;30.30;;;;;;;0.49;100.00;99093.97;4905999;29;20037;-78
2024/01/04 08:13:16;;;;;;;45.75;30.52;;;;;;;0.56;100.00;99082.28;4914402;29;20080;-77
2024/01/04 08:15:42;;;;;;;41.13;28.60;;;;;;;0.69;100.00;99087.59;4892051;29;20131;-81
2024/01/04 08:18:07;;;;;;;41.60;30.48;;;;;;;0.78;100.00;99100.00;4912200;29;20036;-80
2024/01/04 08:20:33;;;;;;;40.83;29.67;;;;;;;0.89;100.00;99100.19;4911601;29;20043;-81
2024/01/04 08:22:59;;;;;;;42.42;29.25;;;;;;;0.99;100.00;99101.31;4909082;29;20096;-80
2024/01/04 08:25:24;;;;;;;38.28;28.05;;;;;;;1.09;100.00;99105.00;4908066;29;20036;-81
2024/01/04 08:27:49;;;;;;;44.17;29.67;;;;;;;1.16;100.00;99114.09;4910765;29;20430;-81
2024/01/04 08:30:15;;;;;;;39.60;28.95;;;;;;;1.23;100.00;99120.59;4912818;29;20051;-80
2024/01/04 08:32:41;;;;;;;41.33;27.95;;;;;;;1.27;100.00;99120.41;4914861;29;20072;-82
2024/01/04 08:35:07;;;;;;;44.45;28.33;;;;;;;1.37;100.00;99139.69;4909896;29;20037;-80
2024/01/04 08:37:32;;;;;;;41.20;27.13;;;;;;;1.43;100.00;99136.69;4913081;29;20116;-82
2024/01/04 08:39:58;;;;;;;50.30;33.72;;;;;;;1.51;100.00;99135.31;4912762;29;20115;-82
2024/01/04 08:42:23;;;;;;;56.67;37.08;;;;;;;1.59;100.00;99137.44;4912721;29;20061;-80
2024/01/04 08:44:49;;;;;;;54.42;35.97;;;;;;;1.64;100.00;99145.78;4912217;29;20084;-78
2024/01/04 08:47:23;;;;;;;52.88;34.50;;;;;;;1.70;100.00;99137.59;4913292;29;20146;-80
2024/01/04 08:49:48;;;;;;;43.45;32.05;;;;;;;1.77;100.00;99144.03;4914656;29;20119;-79
2024/01/04 08:52:14;;;;;;;42.60;31.08;;;;;;;1.80;100.00;99136.06;4915511;29;20044;-78
2024/01/04 08:54:39;;;;;;;44.13;30.55;;;;;;;1.85;100.00;99149.59;4912973;29;20062;-78
2024/01/04 08:57:06;;;;;;;45.28;31.45;;;;;;;1.86;100.00;99150.44;4912089;29;20445;-78
2024/01/04 08:59:32;;;;;;;44.67;32.03;;;;;;;1.91;100.00;99153.56;4910074;29;20051;-80
2024/01/04 09:01:58;;;;;;;47.47;33.05;;;;;;;1.98;100.00;99149.66;4911254;29;20040;-78
2024/01/04 09:04:23;;;;;;;42.50;32.22;;;;;;;2.04;100.00;99142.28;4911572;29;20032;-78
2024/01/04 09:06:48;;;;;;;42.80;31.00;;;;;;;2.10;100.00;99145.44;4911181;29;20074;-80
2024/01/04 09:09:14;;;;;;;43.58;31.30;;;;;;;2.06;100.00;99137.00;4912150;29;20044;-79
2024/01/04 09:11:41;;;;;;;41.50;30.33;;;;;;;2.03;100.00;99138.00;4910994;29;20108;-79
2024/01/04 09:14:11;;;;;;;45.00;31.10;;;;;;;2.06;100.00;99132.59;4908330;29;20082;-79
2024/01/04 09:16:40;;;;;;;49.03;30.70;;;;;;;2.09;100.00;99123.75;5211398;23;20081;-74
2024/01/04 09:19:06;;;;;;;46.90;29.65;;;;;;;2.19;100.00;99119.63;4896634;29;20046;-72
2024/01/04 09:21:31;;;;;;;40.55;28.30;;;;;;;2.24;100.00;99114.94;4911347;29;20040;-73
2024/01/04 09:23:57;;;;;;;44.00;31.17;;;;;;;2.35;100.00;99116.84;4914428;29;20066;-74
2024/01/04 09:26:22;;;;;;;41.20;29.60;;;;;;;2.47;100.00;99126.47;4913578;29;20452;-75
2024/01/04 09:28:48;;;;;;;42.63;29.13;;;;;;;2.62;100.00;99125.41;4908605;29;20025;-73
2024/01/04 09:31:13;;;;;;;39.25;27.55;;;;;;;2.70;100.00;99128.34;4914201;29;20484;-73
2024/01/04 09:33:40;;;;;;;44.90;30.05;;;;;;;2.80;100.00;99112.91;4910169;29;20044;-74
2024/01/04 09:36:06;;;;;;;39.78;27.88;;;;;;;2.88;100.00;99114.06;4914632;29;20416;-74
2024/01/04 09:38:34;;;;;;;38.92;26.73;;;;;;;2.98;100.00;99110.81;4908468;29;20184;-73
2024/01/04 09:41:25;;;;;;;35.40;25.65;;;;;;;3.09;100.00;99118.72;4911263;29;20532;-73
2024/01/04 09:43:55;;;;;;;32.78;25.02;;;;;;;3.23;100.00;99131.66;4909388;29;20449;-74
2024/01/04 09:46:24;;;;;;;31.67;24.98;;;;;;;3.38;100.00;99125.34;4911332;29;20115;-73
2024/01/04 09:48:58;;;;;;;32.50;25.58;;;;;;;3.50;100.00;99119.25;4909959;29;20523;-72
2024/01/04 09:51:27;;;;;;;37.53;26.40;;;;;;;3.62;100.00;99112.34;4909463;29;20412;-73
2024/01/04 09:53:55;;;;;;;34.15;24.58;;;;;;;3.74;100.00;99110.63;4912579;29;20063;-73
2024/01/04 09:56:26;;;;;;;35.58;25.42;;;;;;;3.84;100.00;99116.84;4906088;29;20040;-73
2024/01/04 09:58:52;;;;;;;32.85;24.10;;;;;;;3.93;100.00;99114.41;4913036;29;20032;-73
2024/01/04 10:01:21;;;;;;;35.03;25.85;;;;;;;4.03;100.00;99122.38;4908950;29;20457;-74
2024/01/04 10:03:51;;;;;;;40.38;27.80;;;;;;;4.10;100.00;99108.78;4913825;29;20039;-74
2024/01/04 10:06:32;;;;;;;42.17;27.77;;;;;;;4.20;100.00;99116.75;4910429;29;20032;-72
2024/01/04 10:09:19;;;;;;;36.13;26.88;;;;;;;4.24;100.00;99105.13;4908507;29;20481;-72
2024/01/04 10:12:03;;;;;;;38.00;28.20;;;;;;;4.29;100.00;99110.88;4908881;29;20040;-74
2024/01/04 10:14:29;;;;;;;41.58;27.23;;;;;;;4.36;100.00;99101.59;4908538;29;20463;-74
2024/01/04 10:16:56;;;;;;;44.10;28.38;;;;;;;4.42;100.00;99108.16;4909489;29;20083;-74
2024/01/04 10:19:22;;;;;;;40.60;28.10;;;;;;;4.48;100.00;99112.91;4912806;29;20035;-71
2024/01/04 10:21:48;;;;;;;40.88;27.80;;;;;;;4.52;100.00;99099.53;4910129;29;20592;-73
2024/01/04 10:24:20;;;;;;;38.83;26.92;;;;;;;4.57;100.00;99095.72;4912077;29;20130;-73
2024/01/04 10:26:57;;;;;;;36.55;26.77;;;;;;;4.66;100.00;99095.00;4908864;29;20059;-72
2024/01/04 10:29:29;;;;;;;42.30;28.15;;;;;;;4.71;100.00;99092.91;4909452;29;20044;-72
2024/01/04 10:32:03;;;;;;;39.95;29.08;;;;;;;4.74;100.00;99092.66;4915445;29;20032;-72
2024/01/04 10:34:29;;;;;;;41.78;29.08;;;;;;;4.84;100.00;99091.00;4910705;29;20040;-73
2024/01/04 10:37:08;;;;;;;39.25;27.10;;;;;;;4.95;100.00;99091.00;4912290;29;20063;-73
2024/01/04 10:39:34;;;;;;;39.03;27.10;;;;;;;5.01;100.00;99095.75;4908693;29;20429;-74
2024/01/04 10:42:01;;;;;;;39.22;28.48;;;;;;;5.08;100.00;99099.56;4907530;29;20028;-75
2024/01/04 10:44:28;;;;;;;40.95;28.02;;;;;;;5.14;100.00;99101.69;4913216;29;20063;-72
2024/01/04 10:46:57;;;;;;;36.72;27.33;;;;;;;5.24;100.00;99109.69;4910932;29;20305;-74
2024/01/04 10:49:23;;;;;;;41.65;27.50;;;;;;;5.35;100.00;99100.03;4907972;29;20055;-73
2024/01/04 10:51:52;;;;;;;35.80;25.73;;;;;;;5.47;100.00;99106.09;4910207;29;20032;-75
2024/01/04 10:54:18;;;;;;;35.45;26.08;;;;;;;5.56;100.00;99107.97;4910923;29;20087;-73
2024/01/04 10:56:45;;;;;;;36.05;24.50;;;;;;;5.63;100.00;99105.69;4911880;29;20078;-73
2024/01/04 10:59:12;;;;;;;31.90;23.30;;;;;;;5.71;100.00;99098.06;4912672;29;20036;-75
2024/01/04 11:01:41;;;;;;;35.00;23.67;;;;;;;5.76;100.00;99098.53;4908257;29;20040;-74
2024/01/04 11:04:07;;;;;;;31.42;23.33;;;;;;;5.81;100.00;99096.38;4905610;29;20063;-74
2024/01/04 11:06:40;;;;;;;32.75;21.88;;;;;;;5.86;100.00;99088.13;4910042;29;20028;-74
2024/01/04 11:09:09;;;;;;;36.05;24.40;;;;;;;5.89;100.00;99083.50;4907490;29;20134;-73
2024/01/04 11:11:38;;;;;;;33.30;24.85;;;;;;;5.94;100.00;99076.13;4913362;29;20048;-73